sensor_id;sensor_type;location;lat;lon;timestamp;P1;durP1;ratioP1;P2;durP2;ratioP2
43311;SDS011;30041;48.300;16.352;2022-09-01T00:02:11;4.05;;;1.48;;
43311;SDS011;30041;48.300;16.352;2022-09-01T00:04:38;2.42;;;1.33;;
43311;SDS011;30041;48.300;16.352;2022-09-01T00:07:06;2.90;;;1.52;;
43311;SDS011;30041;48.300;16.352;2022-09-01T00:09:32;2.58;;;1.27;;
43311;SDS011;30041;48.300;16.352;2022-09-01T00:11:59;2.92;;;1.60;;
43311;SDS011;30041;48.300;16.352;2022-09-01T00:14:27;3.05;;;1.40;;
43311;SDS011;30041;48.300;16.352;2022-09-01T00:16:55;5.13;;;1.50;;
43311;SDS011;30041;48.300;16.352;2022-09-01T00:19:21;4.78;;;1.50;;
43311;SDS011;30041;48.300;16.352;2022-09-01T00:21:48;2.80;;;1.55;;
43311;SDS011;30041;48.300;16.352;2022-09-01T00:24:15;2.67;;;1.60;;
43311;SDS011;30041;48.300;16.352;2022-09-01T00:26:42;2.08;;;1.38;;
43311;SDS011;30041;48.300;16.352;2022-09-01T00:29:08;3.95;;;1.52;;
43311;SDS011;30041;48.300;16.352;2022-09-01T00:31:34;3.25;;;1.70;;
43311;SDS011;30041;48.300;16.352;2022-09-01T00:34:00;3.05;;;1.60;;
43311;SDS011;30041;48.300;16.352;2022-09-01T00:36:26;4.72;;;1.40;;
43311;SDS011;30041;48.300;16.352;2022-09-01T00:38:52;2.65;;;1.58;;
43311;SDS011;30041;48.300;16.352;2022-09-01T00:41:20;4.85;;;1.70;;
43311;SDS011;30041;48.300;16.352;2022-09-01T00:43:49;2.88;;;1.55;;
43311;SDS011;30041;48.300;16.352;2022-09-01T00:46:21;3.50;;;1.63;;
43311;SDS011;30041;48.300;16.352;2022-09-01T00:51:35;4.13;;;1.70;;
43311;SDS011;30041;48.300;16.352;2022-09-01T00:54:03;3.17;;;1.35;;
43311;SDS011;30041;48.300;16.352;2022-09-01T00:56:31;2.90;;;1.20;;
43311;SDS011;30041;48.300;16.352;2022-09-01T00:59:02;2.53;;;1.35;;
43311;SDS011;30041;48.300;16.352;2022-09-01T01:01:30;3.88;;;1.80;;
43311;SDS011;30041;48.300;16.352;2022-09-01T01:03:55;3.58;;;1.42;;
43311;SDS011;30041;48.300;16.352;2022-09-01T01:06:21;2.88;;;1.50;;
43311;SDS011;30041;48.300;16.352;2022-09-01T01:08:47;3.80;;;1.52;;
43311;SDS011;30041;48.300;16.352;2022-09-01T01:11:14;3.30;;;1.50;;
43311;SDS011;30041;48.300;16.352;2022-09-01T01:13:50;2.58;;;1.52;;
43311;SDS011;30041;48.300;16.352;2022-09-01T01:16:18;3.00;;;1.52;;
43311;SDS011;30041;48.300;16.352;2022-09-01T01:18:43;3.60;;;1.38;;
43311;SDS011;30041;48.300;16.352;2022-09-01T01:21:25;3.92;;;1.40;;
43311;SDS011;30041;48.300;16.352;2022-09-01T01:23:58;2.65;;;1.50;;
43311;SDS011;30041;48.300;16.352;2022-09-01T01:28:58;3.17;;;1.70;;
43311;SDS011;30041;48.300;16.352;2022-09-01T01:31:23;3.28;;;1.30;;
43311;SDS011;30041;48.300;16.352;2022-09-01T01:33:50;3.22;;;1.45;;
43311;SDS011;30041;48.300;16.352;2022-09-01T01:36:24;2.22;;;1.30;;
43311;SDS011;30041;48.300;16.352;2022-09-01T01:38:52;2.50;;;1.40;;
43311;SDS011;30041;48.300;16.352;2022-09-01T01:41:17;3.20;;;1.48;;
43311;SDS011;30041;48.300;16.352;2022-09-01T01:43:44;2.97;;;1.48;;
43311;SDS011;30041;48.300;16.352;2022-09-01T01:46:10;3.28;;;1.45;;
43311;SDS011;30041;48.300;16.352;2022-09-01T01:48:37;4.10;;;1.30;;
43311;SDS011;30041;48.300;16.352;2022-09-01T01:51:03;4.03;;;1.40;;
43311;SDS011;30041;48.300;16.352;2022-09-01T01:53:30;3.55;;;1.70;;
43311;SDS011;30041;48.300;16.352;2022-09-01T01:55:56;2.50;;;1.50;;
43311;SDS011;30041;48.300;16.352;2022-09-01T01:58:22;1.88;;;1.20;;
43311;SDS011;30041;48.300;16.352;2022-09-01T02:00:48;3.30;;;1.40;;
43311;SDS011;30041;48.300;16.352;2022-09-01T02:03:16;2.65;;;1.42;;
43311;SDS011;30041;48.300;16.352;2022-09-01T02:05:45;4.53;;;1.40;;
43311;SDS011;30041;48.300;16.352;2022-09-01T02:08:11;3.17;;;1.33;;
43311;SDS011;30041;48.300;16.352;2022-09-01T02:10:39;2.67;;;1.27;;
43311;SDS011;30041;48.300;16.352;2022-09-01T02:13:09;2.85;;;1.35;;
43311;SDS011;30041;48.300;16.352;2022-09-01T02:15:37;4.20;;;1.63;;
43311;SDS011;30041;48.300;16.352;2022-09-01T02:18:04;2.55;;;1.35;;
43311;SDS011;30041;48.300;16.352;2022-09-01T02:20:30;3.72;;;1.40;;
43311;SDS011;30041;48.300;16.352;2022-09-01T02:22:55;3.67;;;1.30;;
43311;SDS011;30041;48.300;16.352;2022-09-01T02:25:21;2.63;;;1.23;;
43311;SDS011;30041;48.300;16.352;2022-09-01T02:27:47;1.80;;;1.23;;
43311;SDS011;30041;48.300;16.352;2022-09-01T02:30:12;2.55;;;1.40;;
43311;SDS011;30041;48.300;16.352;2022-09-01T02:32:38;3.78;;;1.52;;
43311;SDS011;30041;48.300;16.352;2022-09-01T02:35:04;2.90;;;1.30;;
43311;SDS011;30041;48.300;16.352;2022-09-01T02:37:30;3.85;;;1.30;;
43311;SDS011;30041;48.300;16.352;2022-09-01T02:39:56;2.47;;;1.30;;
43311;SDS011;30041;48.300;16.352;2022-09-01T02:42:22;2.83;;;1.40;;
43311;SDS011;30041;48.300;16.352;2022-09-01T02:44:47;2.45;;;1.50;;
43311;SDS011;30041;48.300;16.352;2022-09-01T02:47:13;2.15;;;1.30;;
43311;SDS011;30041;48.300;16.352;2022-09-01T02:49:38;3.67;;;1.50;;
43311;SDS011;30041;48.300;16.352;2022-09-01T02:52:04;4.22;;;1.33;;
43311;SDS011;30041;48.300;16.352;2022-09-01T02:54:30;3.25;;;1.38;;
43311;SDS011;30041;48.300;16.352;2022-09-01T02:56:56;3.00;;;1.30;;
43311;SDS011;30041;48.300;16.352;2022-09-01T02:59:23;2.88;;;1.40;;
43311;SDS011;30041;48.300;16.352;2022-09-01T03:01:51;2.47;;;1.33;;
43311;SDS011;30041;48.300;16.352;2022-09-01T03:04:18;2.75;;;1.40;;
43311;SDS011;30041;48.300;16.352;2022-09-01T03:06:44;1.75;;;1.15;;
43311;SDS011;30041;48.300;16.352;2022-09-01T03:09:12;3.78;;;1.60;;
43311;SDS011;30041;48.300;16.352;2022-09-01T03:11:40;3.85;;;1.30;;
43311;SDS011;30041;48.300;16.352;2022-09-01T03:14:08;3.60;;;1.30;;
43311;SDS011;30041;48.300;16.352;2022-09-01T03:16:34;2.28;;;1.17;;
43311;SDS011;30041;48.300;16.352;2022-09-01T03:19:00;4.72;;;1.33;;
43311;SDS011;30041;48.300;16.352;2022-09-01T03:21:26;2.92;;;1.40;;
43311;SDS011;30041;48.300;16.352;2022-09-01T03:23:52;3.03;;;1.20;;
43311;SDS011;30041;48.300;16.352;2022-09-01T03:26:19;3.25;;;1.40;;
43311;SDS011;30041;48.300;16.352;2022-09-01T03:28:45;3.13;;;1.60;;
43311;SDS011;30041;48.300;16.352;2022-09-01T03:31:12;3.15;;;1.30;;
43311;SDS011;30041;48.300;16.352;2022-09-01T03:33:37;2.50;;;1.40;;
43311;SDS011;30041;48.300;16.352;2022-09-01T03:36:04;3.83;;;1.50;;
43311;SDS011;30041;48.300;16.352;2022-09-01T03:38:30;4.90;;;1.58;;
43311;SDS011;30041;48.300;16.352;2022-09-01T03:40:59;4.68;;;1.40;;
43311;SDS011;30041;48.300;16.352;2022-09-01T03:43:27;2.70;;;1.25;;
43311;SDS011;30041;48.300;16.352;2022-09-01T03:45:54;4.38;;;1.40;;
43311;SDS011;30041;48.300;16.352;2022-09-01T03:48:21;3.70;;;1.23;;
43311;SDS011;30041;48.300;16.352;2022-09-01T03:50:47;2.33;;;1.38;;
43311;SDS011;30041;48.300;16.352;2022-09-01T03:53:16;4.13;;;1.30;;
43311;SDS011;30041;48.300;16.352;2022-09-01T03:55:44;2.20;;;1.30;;
43311;SDS011;30041;48.300;16.352;2022-09-01T03:58:11;2.33;;;1.10;;
43311;SDS011;30041;48.300;16.352;2022-09-01T04:00:39;3.10;;;1.33;;
43311;SDS011;30041;48.300;16.352;2022-09-01T04:03:06;2.45;;;1.30;;
43311;SDS011;30041;48.300;16.352;2022-09-01T04:05:34;5.05;;;1.38;;
43311;SDS011;30041;48.300;16.352;2022-09-01T04:08:01;2.75;;;1.40;;
43311;SDS011;30041;48.300;16.352;2022-09-01T04:10:29;2.58;;;1.55;;
43311;SDS011;30041;48.300;16.352;2022-09-01T04:12:54;3.92;;;1.52;;
43311;SDS011;30041;48.300;16.352;2022-09-01T04:15:20;2.25;;;1.35;;
43311;SDS011;30041;48.300;16.352;2022-09-01T04:17:46;2.90;;;1.30;;
43311;SDS011;30041;48.300;16.352;2022-09-01T04:20:11;3.28;;;1.15;;
43311;SDS011;30041;48.300;16.352;2022-09-01T04:22:36;3.13;;;1.40;;
43311;SDS011;30041;48.300;16.352;2022-09-01T04:25:02;3.95;;;1.30;;
43311;SDS011;30041;48.300;16.352;2022-09-01T04:27:28;2.67;;;1.20;;
43311;SDS011;30041;48.300;16.352;2022-09-01T04:29:54;4.53;;;1.55;;
43311;SDS011;30041;48.300;16.352;2022-09-01T04:32:19;3.03;;;1.35;;
43311;SDS011;30041;48.300;16.352;2022-09-01T04:34:45;3.08;;;1.33;;
43311;SDS011;30041;48.300;16.352;2022-09-01T04:37:11;2.55;;;1.30;;
43311;SDS011;30041;48.300;16.352;2022-09-01T04:39:39;3.60;;;1.20;;
43311;SDS011;30041;48.300;16.352;2022-09-01T04:42:08;3.85;;;1.75;;
43311;SDS011;30041;48.300;16.352;2022-09-01T04:44:33;3.17;;;1.50;;
43311;SDS011;30041;48.300;16.352;2022-09-01T04:46:59;2.47;;;1.35;;
43311;SDS011;30041;48.300;16.352;2022-09-01T04:49:24;2.88;;;1.20;;
43311;SDS011;30041;48.300;16.352;2022-09-01T04:51:50;3.13;;;1.60;;
43311;SDS011;30041;48.300;16.352;2022-09-01T04:54:17;4.93;;;1.90;;
43311;SDS011;30041;48.300;16.352;2022-09-01T04:56:45;3.67;;;1.55;;
43311;SDS011;30041;48.300;16.352;2022-09-01T04:59:12;3.00;;;1.35;;
43311;SDS011;30041;48.300;16.352;2022-09-01T05:01:38;3.20;;;1.73;;
43311;SDS011;30041;48.300;16.352;2022-09-01T05:04:05;3.10;;;1.50;;
43311;SDS011;30041;48.300;16.352;2022-09-01T05:06:31;2.90;;;1.25;;
43311;SDS011;30041;48.300;16.352;2022-09-01T05:08:56;4.00;;;1.40;;
43311;SDS011;30041;48.300;16.352;2022-09-01T05:11:22;3.88;;;1.50;;
43311;SDS011;30041;48.300;16.352;2022-09-01T05:13:48;3.65;;;1.40;;
43311;SDS011;30041;48.300;16.352;2022-09-01T05:16:15;4.15;;;1.30;;
43311;SDS011;30041;48.300;16.352;2022-09-01T05:18:44;2.03;;;0.95;;
43311;SDS011;30041;48.300;16.352;2022-09-01T05:21:18;2.97;;;1.20;;
43311;SDS011;30041;48.300;16.352;2022-09-01T05:23:44;3.63;;;1.40;;
43311;SDS011;30041;48.300;16.352;2022-09-01T05:26:12;2.72;;;1.50;;
43311;SDS011;30041;48.300;16.352;2022-09-01T05:28:39;5.00;;;1.35;;
43311;SDS011;30041;48.300;16.352;2022-09-01T05:31:05;2.78;;;1.30;;
43311;SDS011;30041;48.300;16.352;2022-09-01T05:33:30;11.13;;;2.20;;
43311;SDS011;30041;48.300;16.352;2022-09-01T05:35:57;6.82;;;1.92;;
43311;SDS011;30041;48.300;16.352;2022-09-01T05:38:23;6.70;;;2.10;;
43311;SDS011;30041;48.300;16.352;2022-09-01T05:40:58;13.20;;;1.83;;
43311;SDS011;30041;48.300;16.352;2022-09-01T05:43:26;6.05;;;1.80;;
43311;SDS011;30041;48.300;16.352;2022-09-01T05:45:51;12.85;;;3.60;;
43311;SDS011;30041;48.300;16.352;2022-09-01T05:48:17;9.40;;;2.50;;
43311;SDS011;30041;48.300;16.352;2022-09-01T05:50:43;7.30;;;2.28;;
43311;SDS011;30041;48.300;16.352;2022-09-01T05:53:09;3.70;;;1.40;;
43311;SDS011;30041;48.300;16.352;2022-09-01T05:55:38;5.43;;;1.65;;
43311;SDS011;30041;48.300;16.352;2022-09-01T05:58:04;2.55;;;1.45;;
43311;SDS011;30041;48.300;16.352;2022-09-01T06:00:29;3.38;;;1.35;;
43311;SDS011;30041;48.300;16.352;2022-09-01T06:02:54;4.95;;;1.40;;
43311;SDS011;30041;48.300;16.352;2022-09-01T06:05:20;3.63;;;1.70;;
43311;SDS011;30041;48.300;16.352;2022-09-01T06:07:45;4.85;;;1.30;;
43311;SDS011;30041;48.300;16.352;2022-09-01T06:10:11;7.53;;;1.60;;
43311;SDS011;30041;48.300;16.352;2022-09-01T06:12:36;8.00;;;1.80;;
43311;SDS011;30041;48.300;16.352;2022-09-01T06:15:02;5.50;;;1.63;;
43311;SDS011;30041;48.300;16.352;2022-09-01T06:17:27;3.90;;;1.55;;
43311;SDS011;30041;48.300;16.352;2022-09-01T06:19:53;7.65;;;1.42;;
43311;SDS011;30041;48.300;16.352;2022-09-01T06:22:20;6.70;;;1.52;;
43311;SDS011;30041;48.300;16.352;2022-09-01T06:24:45;4.68;;;1.40;;
43311;SDS011;30041;48.300;16.352;2022-09-01T06:27:11;4.95;;;1.55;;
43311;SDS011;30041;48.300;16.352;2022-09-01T06:29:37;14.15;;;1.77;;
43311;SDS011;30041;48.300;16.352;2022-09-01T06:32:03;11.15;;;2.08;;
43311;SDS011;30041;48.300;16.352;2022-09-01T06:34:29;15.48;;;2.13;;
43311;SDS011;30041;48.300;16.352;2022-09-01T06:36:54;5.35;;;1.58;;
43311;SDS011;30041;48.300;16.352;2022-09-01T06:39:19;4.50;;;1.30;;
43311;SDS011;30041;48.300;16.352;2022-09-01T06:41:48;4.38;;;1.30;;
43311;SDS011;30041;48.300;16.352;2022-09-01T06:44:14;6.43;;;1.52;;
43311;SDS011;30041;48.300;16.352;2022-09-01T06:46:40;4.88;;;1.20;;
43311;SDS011;30041;48.300;16.352;2022-09-01T06:49:05;3.00;;;1.30;;
43311;SDS011;30041;48.300;16.352;2022-09-01T06:51:31;7.70;;;1.55;;
43311;SDS011;30041;48.300;16.352;2022-09-01T06:53:57;3.15;;;1.45;;
43311;SDS011;30041;48.300;16.352;2022-09-01T06:56:23;5.10;;;1.20;;
43311;SDS011;30041;48.300;16.352;2022-09-01T06:58:50;3.63;;;1.30;;
43311;SDS011;30041;48.300;16.352;2022-09-01T07:01:17;3.45;;;1.42;;
43311;SDS011;30041;48.300;16.352;2022-09-01T07:03:45;4.90;;;1.30;;
43311;SDS011;30041;48.300;16.352;2022-09-01T07:06:13;4.25;;;1.40;;
43311;SDS011;30041;48.300;16.352;2022-09-01T07:08:40;3.10;;;1.20;;
43311;SDS011;30041;48.300;16.352;2022-09-01T07:11:07;5.40;;;1.45;;
43311;SDS011;30041;48.300;16.352;2022-09-01T07:13:40;3.40;;;1.20;;
43311;SDS011;30041;48.300;16.352;2022-09-01T07:16:06;4.03;;;1.20;;
43311;SDS011;30041;48.300;16.352;2022-09-01T07:18:32;5.22;;;1.58;;
43311;SDS011;30041;48.300;16.352;2022-09-01T07:20:57;4.60;;;1.38;;
43311;SDS011;30041;48.300;16.352;2022-09-01T07:23:23;3.72;;;1.40;;
43311;SDS011;30041;48.300;16.352;2022-09-01T07:25:49;4.70;;;1.50;;
43311;SDS011;30041;48.300;16.352;2022-09-01T07:28:18;3.90;;;1.20;;
43311;SDS011;30041;48.300;16.352;2022-09-01T07:30:46;4.90;;;1.30;;
43311;SDS011;30041;48.300;16.352;2022-09-01T07:33:14;2.40;;;1.30;;
43311;SDS011;30041;48.300;16.352;2022-09-01T07:35:41;6.32;;;1.20;;
43311;SDS011;30041;48.300;16.352;2022-09-01T07:38:07;5.07;;;1.38;;
43311;SDS011;30041;48.300;16.352;2022-09-01T07:40:36;3.75;;;1.27;;
43311;SDS011;30041;48.300;16.352;2022-09-01T07:43:07;3.65;;;1.23;;
43311;SDS011;30041;48.300;16.352;2022-09-01T07:45:43;4.88;;;1.30;;
43311;SDS011;30041;48.300;16.352;2022-09-01T07:48:10;6.18;;;1.63;;
43311;SDS011;30041;48.300;16.352;2022-09-01T07:50:36;8.23;;;1.48;;
43311;SDS011;30041;48.300;16.352;2022-09-01T07:53:07;4.15;;;1.20;;
43311;SDS011;30041;48.300;16.352;2022-09-01T07:55:33;4.60;;;1.30;;
43311;SDS011;30041;48.300;16.352;2022-09-01T07:57:58;4.68;;;1.52;;
43311;SDS011;30041;48.300;16.352;2022-09-01T08:00:24;3.97;;;1.20;;
43311;SDS011;30041;48.300;16.352;2022-09-01T08:02:50;4.57;;;1.42;;
43311;SDS011;30041;48.300;16.352;2022-09-01T08:05:16;4.90;;;1.17;;
43311;SDS011;30041;48.300;16.352;2022-09-01T08:07:43;6.55;;;1.52;;
43311;SDS011;30041;48.300;16.352;2022-09-01T08:10:09;6.43;;;1.23;;
43311;SDS011;30041;48.300;16.352;2022-09-01T08:12:34;1.85;;;1.08;;
43311;SDS011;30041;48.300;16.352;2022-09-01T08:15:00;5.25;;;1.50;;
43311;SDS011;30041;48.300;16.352;2022-09-01T08:17:27;3.55;;;1.30;;
43311;SDS011;30041;48.300;16.352;2022-09-01T08:19:52;4.05;;;1.23;;
43311;SDS011;30041;48.300;16.352;2022-09-01T08:22:18;2.00;;;1.00;;
43311;SDS011;30041;48.300;16.352;2022-09-01T08:24:45;3.08;;;1.35;;
43311;SDS011;30041;48.300;16.352;2022-09-01T08:27:11;4.07;;;1.05;;
43311;SDS011;30041;48.300;16.352;2022-09-01T08:29:36;3.38;;;1.08;;
43311;SDS011;30041;48.300;16.352;2022-09-01T08:32:05;3.67;;;1.10;;
43311;SDS011;30041;48.300;16.352;2022-09-01T08:34:31;4.65;;;1.15;;
43311;SDS011;30041;48.300;16.352;2022-09-01T08:36:57;6.63;;;1.40;;
43311;SDS011;30041;48.300;16.352;2022-09-01T08:39:23;6.57;;;1.63;;
43311;SDS011;30041;48.300;16.352;2022-09-01T08:42:04;4.40;;;1.40;;
43311;SDS011;30041;48.300;16.352;2022-09-01T08:47:18;8.35;;;1.10;;
43311;SDS011;30041;48.300;16.352;2022-09-01T08:49:44;3.78;;;1.10;;
43311;SDS011;30041;48.300;16.352;2022-09-01T08:52:15;3.75;;;1.25;;
43311;SDS011;30041;48.300;16.352;2022-09-01T08:55:09;4.20;;;1.27;;
43311;SDS011;30041;48.300;16.352;2022-09-01T08:57:42;4.80;;;1.30;;
43311;SDS011;30041;48.300;16.352;2022-09-01T09:00:13;5.07;;;1.60;;
43311;SDS011;30041;48.300;16.352;2022-09-01T09:02:44;3.15;;;1.30;;
43311;SDS011;30041;48.300;16.352;2022-09-01T09:11:07;3.90;;;1.40;;
43311;SDS011;30041;48.300;16.352;2022-09-01T09:16:39;2.42;;;1.00;;
43311;SDS011;30041;48.300;16.352;2022-09-01T09:19:07;4.45;;;1.60;;
43311;SDS011;30041;48.300;16.352;2022-09-01T09:21:49;3.83;;;1.50;;
43311;SDS011;30041;48.300;16.352;2022-09-01T09:24:27;3.22;;;1.23;;
43311;SDS011;30041;48.300;16.352;2022-09-01T09:26:59;3.95;;;1.00;;
43311;SDS011;30041;48.300;16.352;2022-09-01T09:29:25;2.90;;;1.10;;
43311;SDS011;30041;48.300;16.352;2022-09-01T09:32:02;3.47;;;1.10;;
43311;SDS011;30041;48.300;16.352;2022-09-01T09:34:34;1.95;;;0.93;;
43311;SDS011;30041;48.300;16.352;2022-09-01T09:40:07;5.60;;;1.20;;
43311;SDS011;30041;48.300;16.352;2022-09-01T09:42:38;6.05;;;0.82;;
43311;SDS011;30041;48.300;16.352;2022-09-01T09:47:51;4.03;;;1.13;;
43311;SDS011;30041;48.300;16.352;2022-09-01T09:50:20;2.17;;;0.90;;
43311;SDS011;30041;48.300;16.352;2022-09-01T09:52:46;4.32;;;1.00;;
43311;SDS011;30041;48.300;16.352;2022-09-01T09:55:24;5.05;;;1.48;;
43311;SDS011;30041;48.300;16.352;2022-09-01T09:57:53;3.10;;;1.00;;
43311;SDS011;30041;48.300;16.352;2022-09-01T10:03:12;3.47;;;1.13;;
43311;SDS011;30041;48.300;16.352;2022-09-01T10:08:08;2.83;;;1.00;;
43311;SDS011;30041;48.300;16.352;2022-09-01T10:10:52;2.58;;;1.02;;
43311;SDS011;30041;48.300;16.352;2022-09-01T10:13:20;16.52;;;1.38;;
43311;SDS011;30041;48.300;16.352;2022-09-01T10:15:48;2.58;;;1.05;;
43311;SDS011;30041;48.300;16.352;2022-09-01T10:18:18;4.78;;;1.10;;
43311;SDS011;30041;48.300;16.352;2022-09-01T10:20:50;3.30;;;0.90;;
43311;SDS011;30041;48.300;16.352;2022-09-01T10:23:20;5.35;;;1.00;;
43311;SDS011;30041;48.300;16.352;2022-09-01T10:25:46;2.72;;;0.93;;
43311;SDS011;30041;48.300;16.352;2022-09-01T10:28:14;4.25;;;1.00;;
43311;SDS011;30041;48.300;16.352;2022-09-01T10:30:43;2.00;;;0.80;;
43311;SDS011;30041;48.300;16.352;2022-09-01T10:33:11;4.68;;;0.80;;
43311;SDS011;30041;48.300;16.352;2022-09-01T10:35:45;3.13;;;0.80;;
43311;SDS011;30041;48.300;16.352;2022-09-01T10:38:20;4.80;;;1.20;;
43311;SDS011;30041;48.300;16.352;2022-09-01T10:40:48;6.68;;;1.05;;
43311;SDS011;30041;48.300;16.352;2022-09-01T10:43:35;3.40;;;1.02;;
43311;SDS011;30041;48.300;16.352;2022-09-01T10:46:08;3.72;;;1.00;;
43311;SDS011;30041;48.300;16.352;2022-09-01T10:48:36;2.75;;;0.85;;
43311;SDS011;30041;48.300;16.352;2022-09-01T10:53:37;4.13;;;1.00;;
43311;SDS011;30041;48.300;16.352;2022-09-01T10:56:15;4.43;;;1.00;;
43311;SDS011;30041;48.300;16.352;2022-09-01T11:04:04;2.70;;;0.82;;
43311;SDS011;30041;48.300;16.352;2022-09-01T11:06:44;5.40;;;1.10;;
43311;SDS011;30041;48.300;16.352;2022-09-01T11:09:24;5.03;;;1.17;;
43311;SDS011;30041;48.300;16.352;2022-09-01T11:11:54;2.55;;;1.00;;
43311;SDS011;30041;48.300;16.352;2022-09-01T11:20:05;2.92;;;0.90;;
43311;SDS011;30041;48.300;16.352;2022-09-01T11:22:57;2.92;;;0.88;;
43311;SDS011;30041;48.300;16.352;2022-09-01T11:25:34;1.85;;;0.70;;
43311;SDS011;30041;48.300;16.352;2022-09-01T11:28:06;2.65;;;0.80;;
43311;SDS011;30041;48.300;16.352;2022-09-01T11:35:40;2.45;;;0.82;;
43311;SDS011;30041;48.300;16.352;2022-09-01T11:38:12;3.85;;;0.90;;
43311;SDS011;30041;48.300;16.352;2022-09-01T11:40:40;2.75;;;0.82;;
43311;SDS011;30041;48.300;16.352;2022-09-01T11:43:07;2.78;;;0.70;;
43311;SDS011;30041;48.300;16.352;2022-09-01T11:45:43;3.28;;;1.00;;
43311;SDS011;30041;48.300;16.352;2022-09-01T11:48:23;2.15;;;0.73;;
43311;SDS011;30041;48.300;16.352;2022-09-01T11:50:55;1.55;;;0.63;;
43311;SDS011;30041;48.300;16.352;2022-09-01T11:53:25;1.80;;;0.80;;
43311;SDS011;30041;48.300;16.352;2022-09-01T11:55:52;1.63;;;0.70;;
43311;SDS011;30041;48.300;16.352;2022-09-01T12:00:50;4.65;;;0.80;;
43311;SDS011;30041;48.300;16.352;2022-09-01T12:03:19;2.72;;;0.85;;
43311;SDS011;30041;48.300;16.352;2022-09-01T12:05:51;4.18;;;0.93;;
43311;SDS011;30041;48.300;16.352;2022-09-01T12:08:28;3.78;;;0.80;;
43311;SDS011;30041;48.300;16.352;2022-09-01T12:11:04;4.45;;;0.70;;
43311;SDS011;30041;48.300;16.352;2022-09-01T12:13:42;3.20;;;1.17;;
43311;SDS011;30041;48.300;16.352;2022-09-01T12:16:22;1.85;;;0.70;;
43311;SDS011;30041;48.300;16.352;2022-09-01T12:18:48;4.00;;;0.80;;
43311;SDS011;30041;48.300;16.352;2022-09-01T12:23:53;2.72;;;0.90;;
43311;SDS011;30041;48.300;16.352;2022-09-01T12:26:34;2.28;;;0.88;;
43311;SDS011;30041;48.300;16.352;2022-09-01T12:28:59;4.50;;;1.10;;
43311;SDS011;30041;48.300;16.352;2022-09-01T12:31:25;3.63;;;0.80;;
43311;SDS011;30041;48.300;16.352;2022-09-01T12:33:52;3.50;;;1.00;;
43311;SDS011;30041;48.300;16.352;2022-09-01T12:38:50;2.40;;;1.00;;
43311;SDS011;30041;48.300;16.352;2022-09-01T12:41:24;2.90;;;0.88;;
43311;SDS011;30041;48.300;16.352;2022-09-01T12:43:51;3.55;;;0.73;;
43311;SDS011;30041;48.300;16.352;2022-09-01T12:49:18;8.68;;;0.93;;
43311;SDS011;30041;48.300;16.352;2022-09-01T12:51:48;5.45;;;0.90;;
43311;SDS011;30041;48.300;16.352;2022-09-01T12:54:14;3.63;;;0.88;;
43311;SDS011;30041;48.300;16.352;2022-09-01T12:56:39;2.40;;;0.60;;
43311;SDS011;30041;48.300;16.352;2022-09-01T12:59:14;3.55;;;0.60;;
43311;SDS011;30041;48.300;16.352;2022-09-01T13:01:48;3.28;;;0.80;;
43311;SDS011;30041;48.300;16.352;2022-09-01T13:06:45;3.58;;;0.88;;
43311;SDS011;30041;48.300;16.352;2022-09-01T13:09:11;2.38;;;0.73;;
43311;SDS011;30041;48.300;16.352;2022-09-01T13:11:37;1.80;;;0.60;;
43311;SDS011;30041;48.300;16.352;2022-09-01T13:14:03;2.38;;;0.70;;
43311;SDS011;30041;48.300;16.352;2022-09-01T13:16:29;1.75;;;0.80;;
43311;SDS011;30041;48.300;16.352;2022-09-01T13:18:54;1.13;;;0.47;;
43311;SDS011;30041;48.300;16.352;2022-09-01T13:21:20;1.25;;;0.73;;
43311;SDS011;30041;48.300;16.352;2022-09-01T13:23:45;3.17;;;0.80;;
43311;SDS011;30041;48.300;16.352;2022-09-01T13:26:11;2.33;;;0.63;;
43311;SDS011;30041;48.300;16.352;2022-09-01T13:28:36;3.25;;;0.63;;
43311;SDS011;30041;48.300;16.352;2022-09-01T13:31:02;2.90;;;0.70;;
43311;SDS011;30041;48.300;16.352;2022-09-01T13:33:29;1.25;;;0.60;;
43311;SDS011;30041;48.300;16.352;2022-09-01T13:35:57;2.38;;;0.80;;
43311;SDS011;30041;48.300;16.352;2022-09-01T13:38:23;3.25;;;0.60;;
43311;SDS011;30041;48.300;16.352;2022-09-01T13:40:49;1.23;;;0.47;;
43311;SDS011;30041;48.300;16.352;2022-09-01T13:43:16;2.15;;;0.57;;
43311;SDS011;30041;48.300;16.352;2022-09-01T13:45:46;3.90;;;0.80;;
43311;SDS011;30041;48.300;16.352;2022-09-01T13:48:13;1.50;;;0.52;;
43311;SDS011;30041;48.300;16.352;2022-09-01T13:50:39;1.58;;;0.80;;
43311;SDS011;30041;48.300;16.352;2022-09-01T13:53:05;2.40;;;0.55;;
43311;SDS011;30041;48.300;16.352;2022-09-01T13:55:33;1.98;;;0.70;;
43311;SDS011;30041;48.300;16.352;2022-09-01T13:58:02;2.72;;;0.70;;
43311;SDS011;30041;48.300;16.352;2022-09-01T14:00:28;2.40;;;0.65;;
43311;SDS011;30041;48.300;16.352;2022-09-01T14:02:56;1.95;;;0.70;;
43311;SDS011;30041;48.300;16.352;2022-09-01T14:05:26;2.55;;;0.70;;
43311;SDS011;30041;48.300;16.352;2022-09-01T14:07:55;1.33;;;0.60;;
43311;SDS011;30041;48.300;16.352;2022-09-01T14:10:21;1.60;;;0.70;;
43311;SDS011;30041;48.300;16.352;2022-09-01T14:12:47;1.27;;;0.60;;
43311;SDS011;30041;48.300;16.352;2022-09-01T14:15:14;2.22;;;0.60;;
43311;SDS011;30041;48.300;16.352;2022-09-01T14:17:41;1.92;;;0.60;;
43311;SDS011;30041;48.300;16.352;2022-09-01T14:20:10;2.08;;;0.50;;
43311;SDS011;30041;48.300;16.352;2022-09-01T14:22:38;2.13;;;0.60;;
43311;SDS011;30041;48.300;16.352;2022-09-01T14:25:05;1.30;;;0.60;;
43311;SDS011;30041;48.300;16.352;2022-09-01T14:27:31;2.15;;;0.73;;
43311;SDS011;30041;48.300;16.352;2022-09-01T14:29:56;1.52;;;0.50;;
43311;SDS011;30041;48.300;16.352;2022-09-01T14:32:22;2.03;;;0.70;;
43311;SDS011;30041;48.300;16.352;2022-09-01T14:34:47;2.97;;;0.60;;
43311;SDS011;30041;48.300;16.352;2022-09-01T14:37:13;2.28;;;0.68;;
43311;SDS011;30041;48.300;16.352;2022-09-01T14:39:39;1.70;;;0.90;;
43311;SDS011;30041;48.300;16.352;2022-09-01T14:42:04;1.38;;;0.45;;
43311;SDS011;30041;48.300;16.352;2022-09-01T14:44:30;0.88;;;0.43;;
43311;SDS011;30041;48.300;16.352;2022-09-01T14:46:56;2.95;;;0.60;;
43311;SDS011;30041;48.300;16.352;2022-09-01T14:49:21;1.08;;;0.50;;
43311;SDS011;30041;48.300;16.352;2022-09-01T14:51:54;1.20;;;0.57;;
43311;SDS011;30041;48.300;16.352;2022-09-01T14:54:19;3.55;;;0.60;;
43311;SDS011;30041;48.300;16.352;2022-09-01T14:56:44;1.92;;;0.55;;
43311;SDS011;30041;48.300;16.352;2022-09-01T14:59:11;2.90;;;0.70;;
43311;SDS011;30041;48.300;16.352;2022-09-01T15:01:37;3.08;;;0.55;;
43311;SDS011;30041;48.300;16.352;2022-09-01T15:04:02;1.73;;;0.50;;
43311;SDS011;30041;48.300;16.352;2022-09-01T15:06:28;3.05;;;0.80;;
43311;SDS011;30041;48.300;16.352;2022-09-01T15:08:53;4.03;;;0.57;;
43311;SDS011;30041;48.300;16.352;2022-09-01T15:11:19;2.47;;;0.50;;
43311;SDS011;30041;48.300;16.352;2022-09-01T15:13:45;0.93;;;0.40;;
43311;SDS011;30041;48.300;16.352;2022-09-01T15:16:15;1.27;;;0.50;;
43311;SDS011;30041;48.300;16.352;2022-09-01T15:18:43;1.45;;;0.40;;
43311;SDS011;30041;48.300;16.352;2022-09-01T15:21:29;2.92;;;0.63;;
43311;SDS011;30041;48.300;16.352;2022-09-01T15:23:55;2.78;;;0.60;;
43311;SDS011;30041;48.300;16.352;2022-09-01T15:26:20;2.60;;;0.60;;
43311;SDS011;30041;48.300;16.352;2022-09-01T15:28:46;1.00;;;0.50;;
43311;SDS011;30041;48.300;16.352;2022-09-01T15:31:13;1.52;;;0.70;;
43311;SDS011;30041;48.300;16.352;2022-09-01T15:33:40;2.30;;;0.50;;
43311;SDS011;30041;48.300;16.352;2022-09-01T15:36:06;0.75;;;0.50;;
43311;SDS011;30041;48.300;16.352;2022-09-01T15:38:32;1.25;;;0.60;;